CheckWX is a tool to help pilots better visualize weather data.  It is not intended as a substitute for an official pre-flight weather briefing.

12:24:48 UTC

KSEF METAR
Sebring Regional Airport
Sebring, Florida, USA
Current

30 mins ago

KSEF 181155Z AUTO 16006KT 3SM BR OVC003 22/21 A3006 RMK AO2 T02160213 10222 20205
Observed
Feb-18 @ 11:55 UTC
Wind
  • 160° at 6 KTS
Visibility
3 SM
Flight Rules
LIFR
Conditions
Mist
Cloud Levels
  • Overcast at 300' AGL
Temperature
22°C / 72°F
Dewpoint
21°C / 70°F
Humidity
94%
Altimeter
30.06" Hg
Pressure
1017.92 hPa
Previous

50 mins ago

KSEF 181135Z AUTO 16007KT 4SM BR OVC003 21/21 A3005 RMK AO2 T02150213
Observed
Feb-18 @ 11:35 UTC
Wind
  • 160° at 7 KTS
Visibility
4 SM
Flight Rules
LIFR
Conditions
Mist
Cloud Levels
  • Overcast at 300' AGL
Temperature
22°C / 72°F
Dewpoint
21°C / 70°F
Humidity
94%
Altimeter
30.05" Hg
Pressure
1017.62 hPa
Previous

1 hour ago

KSEF 181115Z AUTO 16005KT 4SM BR OVC003 21/21 A3005 RMK AO2 T02120210
Observed
Feb-18 @ 11:15 UTC
Wind
  • 160° at 5 KTS
Visibility
4 SM
Flight Rules
LIFR
Conditions
Mist
Cloud Levels
  • Overcast at 300' AGL
Temperature
21°C / 70°F
Dewpoint
21°C / 70°F
Humidity
100%
Altimeter
30.05" Hg
Pressure
1017.62 hPa